• Join FlightAware (Why Join?)
  • Login
  • US Flag 
10:27AM EDT


 

Airport Tracker/Info


-or-


 

Live Flight TrackerFlight Track Log ✈ NKS417 ✈ 06-May-2012 ✈ KDTW - KFLL

Flight Track Log - Related Links

Times and Time Zones

All times are in EDT time to prevent confusion due to time zone crossing. See the NKS417 flight status page for this flight to view local times or setup timezone preferences in your user account.

Time Position Orientation Groundspeed Altitude Reporting Facility
EDT Latitude Longitude Course Direction KTS MPH feet Rate Location/Type
07:02AM 42.2314 -83.3342 43° Northeast 163 188 1,200  Level Cleveland Center
07:03AM 42.2678 -83.2881 47° Northeast 198 228 2,900 1,860 Climbing Cleveland Center
07:04AM 42.3153 -83.2200 98° East 249 287 5,200 2,280 Climbing Cleveland Center
07:05AM 42.3050 -83.1239 125° Southeast 283 326 7,600 2,100 Climbing Cleveland Center
07:06AM 42.2269 -82.9750 203° Southwest 328 377 10,800 1,800 Climbing Cleveland Center
07:07AM 42.1342 -83.0275 205° Southwest 283 326 12,400 2,100 Climbing Cleveland Center
07:08AM 42.0389 -83.0883 203° Southwest 338 389 15,000 2,040 Climbing Cleveland Center
07:10AM 41.9397 -83.1458 202° Southwest 382 440 17,000 1,680 Climbing Cleveland Center
07:11AM 41.8150 -83.2133 202° Southwest 395 455 18,800 1,620 Climbing Cleveland Center
07:12AM 41.7094 -83.2700 203° Southwest 411 473 20,300 1,560 Climbing Cleveland Center
07:13AM 41.5975 -83.3322 202° Southwest 429 494 22,000 1,500 Climbing Cleveland Center
07:14AM 41.4814 -83.3964 201° Southwest 444 511 23,400 1,200 Climbing Cleveland Center
07:15AM 41.3778 -83.4500 202° Southwest 444 511 24,500 1,200 Climbing Cleveland Center
07:16AM 41.2636 -83.5114 203° Southwest 444 511 25,900 1,260 Climbing Cleveland Center
07:17AM 41.0636 -83.6258 203° Southwest 445 512 27,900 1,080 Climbing Indianapolis Center
07:18AM 40.9428 -83.6944 201° Southwest 465 535 28,800 900 Climbing Indianapolis Center
07:19AM 40.8322 -83.7517 183° South 475 547 29,700 1,080 Climbing Indianapolis Center
07:20AM 40.6969 -83.7597 182° South 482 555 31,000 1,320 Climbing Indianapolis Center
07:21AM 40.5678 -83.7647 182° South 481 554 32,400 1,200 Climbing Indianapolis Center
07:22AM 40.4364 -83.7697 182° South 475 547 33,500 900 Climbing Indianapolis Center
07:23AM 40.3072 -83.7747 181° South 475 547 34,300 720 Climbing Indianapolis Center
07:24AM 40.1778 -83.7769 183° South 475 547 35,000 240 Climbing Indianapolis Center
07:25AM 40.0508 -83.7847 182° South 470 541 34,900 -60 Descending Indianapolis Center
07:26AM 39.9214 -83.7897 181° South 470 541 34,900  Level Indianapolis Center
07:27AM 39.7944 -83.7922 181° South 470 541 35,000  Climbing Indianapolis Center
07:28AM 39.6650 -83.7944 181° South 470 541 34,900 -60 Descending Indianapolis Center
07:29AM 39.5358 -83.7967 182° South 470 541 34,900  Level Indianapolis Center
07:30AM 39.4067 -83.8017 181° South 459 528 34,900  Level Indianapolis Center
07:31AM 39.2772 -83.8039 181° South 459 528 35,000  Climbing Indianapolis Center
07:32AM 39.1333 -83.8061 183° South 464 534 35,000  Level Indianapolis Center
07:33AM 39.0042 -83.8136 181° South 464 534 35,000  Level Indianapolis Center
07:34AM 38.8769 -83.8158 181° South 464 534 35,000 -60 Level Indianapolis Center
07:35AM 38.7456 -83.8181 182° South 459 528 34,900  Descending Indianapolis Center
07:36AM 38.6203 -83.8228 182° South 459 528 35,000  Climbing Indianapolis Center
07:37AM 38.4931 -83.8278 181° South 459 528 35,000  Level Indianapolis Center
07:38AM 38.3639 -83.8297 182° South 459 528 35,000  Level Indianapolis Center
07:39AM 38.2367 -83.8347 180° South 459 528 35,000  Level Indianapolis Center
07:40AM 38.0823 -83.8363 181° South 461 531 35,000  Level FlightAware ADS-B
07:42AM 37.8651 -83.8423 181° South 462 532 35,000  Level FlightAware ADS-B
07:43AM 37.7881 -83.8444 181° South 462 532 35,000  Level FlightAware ADS-B
07:44AM 37.6369 -83.8485 181° South 458 527 35,000  Level FlightAware ADS-B
07:44AM 37.5705 -83.8503 181° South 457 526 35,000  Level FlightAware ADS-B
07:45AM 37.5060 -83.8520 181° South 456 525 35,000  Level FlightAware ADS-B
07:45AM 37.4354 -83.8540 181° South 455 524 35,000  Level FlightAware ADS-B
07:46AM 37.3572 -83.8563 181° South 454 522 35,000  Level FlightAware ADS-B
07:47AM 37.2914 -83.8580 181° South 454 522 35,000  Level FlightAware ADS-B
07:47AM 37.2266 -83.8597 181° South 453 521 35,000  Level FlightAware ADS-B
07:48AM 37.1624 -83.8614 181° South 452 520 35,000  Level FlightAware ADS-B
07:48AM 37.0990 -83.8631 181° South 452 520 35,000  Level FlightAware ADS-B
07:49AM 37.0118 -83.8656 181° South 451 519 35,000  Level FlightAware ADS-B
07:49AM 36.9465 -83.8672 181° South 451 519 35,000  Level FlightAware ADS-B
07:50AM 36.8798 -83.8690 181° South 451 519 35,000  Level FlightAware ADS-B
07:50AM 36.8158 -83.8708 181° South 451 519 35,000  Level FlightAware ADS-B
07:51AM 36.7465 -83.8725 181° South 450 518 35,000  Level FlightAware ADS-B
07:52AM 36.6779 -83.8743 181° South 450 518 35,000  Level FlightAware ADS-B
07:52AM 36.6044 -83.8763 181° South 450 518 35,000  Level FlightAware ADS-B
07:53AM 36.5412 -83.8780 181° South 450 518 35,000  Level FlightAware ADS-B
07:53AM 36.4793 -83.8797 181° South 450 518 35,000  Level FlightAware ADS-B
07:54AM 36.4143 -83.8814 181° South 449 517 35,000  Level FlightAware ADS-B
07:54AM 36.3516 -83.8831 181° South 449 517 35,000  Level FlightAware ADS-B
07:55AM 36.2813 -83.8850 181° South 449 517 35,000  Level FlightAware ADS-B
07:55AM 36.2165 -83.8866 181° South 449 517 35,000  Level FlightAware ADS-B
07:56AM 36.1517 -83.8884 181° South 448 516 35,000  Level FlightAware ADS-B
07:56AM 36.0880 -83.8901 181° South 447 514 35,000  Level FlightAware ADS-B
07:57AM 36.0255 -83.8918 181° South 446 513 35,000  Level FlightAware ADS-B
07:57AM 35.9617 -83.8933 178° South 446 513 35,000  Level FlightAware ADS-B
07:58AM 35.9241 -83.8915 174° South 446 513 35,000  Level FlightAware ADS-B
07:58AM 35.8868 -83.8866 170° South 446 513 35,000  Level FlightAware ADS-B
07:58AM 35.8502 -83.8786 166° South 446 513 35,000  Level FlightAware ADS-B
07:59AM 35.7877 -83.8599 166° South 446 513 35,000  Level FlightAware ADS-B
07:59AM 35.7266 -83.8417 167° South 447 514 35,000  Level FlightAware ADS-B
08:00AM 35.6656 -83.8237 166° South 447 514 35,000  Level FlightAware ADS-B
08:00AM 35.6045 -83.8056 167° South 447 514 35,000  Level FlightAware ADS-B
08:01AM 35.5433 -83.7876 166° South 449 517 35,000  Level FlightAware ADS-B
08:01AM 35.4794 -83.7687 166° South 451 519 35,000  Level FlightAware ADS-B
08:02AM 35.4083 -83.7477 166° South 451 519 35,000  Level FlightAware ADS-B
08:02AM 35.3434 -83.7286 167° South 450 518 35,000  Level FlightAware ADS-B
08:03AM 35.2791 -83.7099 166° South 449 517 35,000  Level FlightAware ADS-B
08:03AM 35.2159 -83.6912 166° South 449 517 35,000  Level FlightAware ADS-B
08:04AM 35.1534 -83.6728 167° South 447 514 35,000  Level FlightAware ADS-B
08:04AM 35.0863 -83.6532 167° South 447 514 35,000  Level FlightAware ADS-B
08:05AM 35.0125 -83.6316 167° South 446 513 35,000  Level FlightAware ADS-B
08:06AM 34.9512 -83.6138 167° South 445 512 35,000  Level FlightAware ADS-B
08:06AM 34.9209 -83.6050 167° South 444 511 35,000  Level FlightAware ADS-B
08:06AM 34.8692 -83.5900 167° South 443 510 35,000  Level FlightAware ADS-B
08:07AM 34.8273 -83.5778 167° South 442 509 35,000  Level FlightAware ADS-B
08:07AM 34.7324 -83.5504 167° South 440 506 35,000  Level FlightAware ADS-B
08:08AM 34.6742 -83.5335 166° South 438 504 35,000  Level FlightAware ADS-B
08:08AM 34.6105 -83.5149 167° South 436 502 35,000  Level FlightAware ADS-B
08:09AM 34.5497 -83.4974 167° South 435 501 35,000  Level FlightAware ADS-B
08:10AM 34.4891 -83.4798 167° South 434 499 35,000  Level FlightAware ADS-B
08:10AM 34.4290 -83.4625 167° South 434 499 35,000  Level FlightAware ADS-B
08:11AM 34.3683 -83.4451 167° South 435 501 35,000  Level FlightAware ADS-B
08:11AM 34.3069 -83.4275 167° South 436 502 35,000  Level FlightAware ADS-B
08:12AM 34.2401 -83.4084 167° South 436 502 35,000  Level FlightAware ADS-B
08:12AM 34.1770 -83.3905 167° South 436 502 35,000 180 Level FlightAware ADS-B
08:13AM 34.1175 -83.3735 167° South 436 502 35,200 360 Climbing FlightAware ADS-B
08:13AM 34.0659 -83.3587 167° South 434 499 35,400 420 Climbing FlightAware ADS-B
08:14AM 33.9551 -83.3272 165° South 433 498 35,800 300 Climbing FlightAware ADS-B
08:15AM 33.8672 -83.2983 163° South 430 495 36,000 60 Climbing Atlanta Center
08:16AM 33.7394 -83.2519 164° South 438 504 36,000  Level Atlanta Center
08:17AM 33.6183 -83.2106 164° South 438 504 36,000  Level Atlanta Center
08:18AM 33.5031 -83.1719 164° South 438 504 36,000  Level Atlanta Center
08:19AM 33.3817 -83.1308 163° South 438 504 36,000  Level Atlanta Center
08:20AM 33.2875 -83.0969 164° South 438 504 36,000  Level Atlanta Center
08:21AM 33.1453 -83.0489 166° South 438 504 36,000  Level Atlanta Center
08:22AM 33.0364 -83.0156 164° South 438 504 36,000  Level Atlanta Center
08:24AM 32.7281 -82.9100 164° South 443 510 36,000  Level Jacksonville Center
08:25AM 32.6175 -82.8728 163° South 449 517 36,000  Level Jacksonville Center
08:26AM 32.4942 -82.8286 164° South 454 522 36,000  Level Jacksonville Center
08:27AM 32.3647 -82.7844 164° South 454 522 36,000  Level Jacksonville Center
08:28AM 32.2436 -82.7428 164° South 454 522 36,000  Level Jacksonville Center
08:29AM 32.1225 -82.7011 165° South 454 522 36,000  Level Jacksonville Center
08:30AM 31.9992 -82.6622 164° South 454 522 36,000  Level Jacksonville Center
08:31AM 31.8739 -82.6186 165° South 454 522 36,000  Level Jacksonville Center
08:32AM 31.7528 -82.5797 164° South 454 522 36,000  Level Jacksonville Center
08:33AM 31.6275 -82.5389 169° South 454 522 36,000  Level Jacksonville Center
08:34AM 31.5000 -82.5100 181° South 454 522 36,000  Level Jacksonville Center
08:35AM 31.3767 -82.5131 184° South 454 522 36,000 -60 Level Jacksonville Center
08:36AM 31.2639 -82.5231 182° South 448 516 35,900 -60 Descending Jacksonville Center
08:37AM 31.1408 -82.5283 181° South 448 516 35,900  Level Jacksonville Center
08:38AM 31.0156 -82.5314 183° South 448 516 35,900  Level Jacksonville Center
08:39AM 30.8925 -82.5392 182° South 448 516 36,000  Climbing Jacksonville Center
08:40AM 30.7692 -82.5444 182° South 448 516 36,000  Level Jacksonville Center
08:41AM 30.6419 -82.5497 182° South 448 516 36,000 -60 Level Jacksonville Center
08:42AM 30.5186 -82.5550 177° South 448 516 35,900  Descending Jacksonville Center
08:43AM 30.3933 -82.5481 176° South 448 516 36,000  Climbing Jacksonville Center
08:44AM 30.2661 -82.5367 176° South 455 524 36,000  Level Jacksonville Center
08:45AM 30.1408 -82.5275 176° South 461 531 36,000 -60 Level Jacksonville Center
08:46AM 30.0028 -82.5161 175° South 461 531 35,900 -300 Descending Jacksonville Center
08:47AM 29.8922 -82.5044 176° South 456 525 35,500 -480 Descending Jacksonville Center
08:48AM 29.7647 -82.4953 177° South 463 533 35,000 -300 Descending Jacksonville Center
08:49AM 29.6353 -82.4864 176° South 463 533 35,000  Level Jacksonville Center
08:50AM 29.5081 -82.4750 176° South 463 533 35,000 -60 Level Jacksonville Center
08:51AM 29.3786 -82.4658 177° South 463 533 34,900  Descending Jacksonville Center
08:52AM 29.2492 -82.4569 177° South 463 533 35,000  Climbing Jacksonville Center
08:53AM 29.1197 -82.4481 181° South 463 533 35,000 -60 Level Jacksonville Center
08:54AM 28.9903 -82.4511 183° South 463 533 34,900 -60 Descending Jacksonville Center
08:55AM 28.8608 -82.4586 183° South 463 533 34,900  Level Jacksonville Center
08:56AM 28.7294 -82.4664 183° South 468 539 35,000  Climbing Jacksonville Center
08:57AM 28.5833 -82.4764 183° South 473 544 35,000  Level Jacksonville Center
09:01AM 28.1772 -82.4992 183° South 505 581 35,000  Level Miami Center
09:02AM 28.0478 -82.5069 178° South 477 549 35,000  Level Miami Center
09:03AM 27.9144 -82.5025 161° South 472 543 35,000 -60 Level Miami Center
09:04AM 27.7850 -82.4517 160° South 470 541 34,900 -480 Descending Miami Center
09:05AM 27.6719 -82.4061 159° South 482 555 34,100 -900 Descending Miami Center
09:06AM 27.5447 -82.3508 143° Southeast 494 568 33,200 -1,020 Descending Miami Center
09:07AM 27.4233 -82.2492 144° Southeast 494 568 32,100 -1,020 Descending Miami Center
09:08AM 27.3119 -82.1575 144° Southeast 494 568 31,200 -960 Descending Miami Center
09:09AM 27.2106 -82.0758 145° Southeast 494 568 30,200 -1,200 Descending Miami Center
09:10AM 27.1008 -81.9894 143° Southeast 494 568 28,900 -1,740 Descending Miami Center
09:12AM 26.8900 -81.8125 141° Southeast 481 554 25,000 -1,560 Descending Miami Center
09:15AM 26.5983 -81.5469 133° Southeast 451 519 21,300 -1,800 Descending Miami Center
09:19AM 26.2881 -81.1803 135° Southeast 390 449 12,800 -2,160 Descending Miami Center
09:20AM 26.2192 -81.1039 134° Southeast 373 429 10,700 -1,980 Descending Miami Center
09:21AM 26.1525 -81.0275 121° Southeast 294 338 8,900 -1,440 Descending Miami Center
09:23AM 26.0789 -80.8931 88° East 272 313 6,400 -1,200 Descending Miami Center
09:24AM 26.0814 -80.8053 321° Northwest 262 302 5,400 -1,020 Descending Miami Center
09:24AM 26.6857 -81.3471 209° Southwest  Level FlightAware Approximate
09:25AM 26.5598 -81.4249 109° East  Level FlightAware Approximate
09:26AM 26.5212 -81.3029 110° East  Level FlightAware Approximate
09:27AM 26.4825 -81.1810 151° Southeast  Level FlightAware Approximate
09:28AM 26.2714 -81.0525 171° South  Level FlightAware Approximate
09:29AM 26.1333 -81.0277 110° East  Level FlightAware Approximate
09:30AM 26.1000 -80.9244 96° East  Level FlightAware Approximate
09:31AM 26.0880 -80.7962 83° East  Level FlightAware Approximate
09:32AM 26.0914 -80.7649 92° East  Level FlightAware Approximate
09:33AM 26.0886 -80.6767 82° East  Level FlightAware Approximate
09:34AM 26.1037 -80.5489 86° East  Level FlightAware Approximate
09:35AM 26.1113 -80.4212 79° East  Level FlightAware Approximate
09:36AM 26.1333 -80.2961 84° East  Level FlightAware Approximate
09:37AM 26.1462 -80.1688 169° South  Level FlightAware Approximate
09:38AM 26.0326 -80.1441 351° North  Level Estimated
09:39AM 26.0667 -80.1500 360° North  Level FlightAware Approximate
09:40AM 26.1176 -80.1500 183° South  Level FlightAware Approximate
09:41AM 26.0020 -80.1571 North  Level Estimated
09:42AM 26.0667 -80.1500 337° Northwest  Level FlightAware Approximate
09:43AM 26.1735 -80.1997 157° South  Level Estimated
09:44AM 26.0667 -80.1500 157° South  Level FlightAware Approximate